createdAt,value
2023-02-11T00:00:40.523Z,18.70
2023-02-11T00:03:10.155Z,19.10
2023-02-11T00:05:38.132Z,19.13
2023-02-11T00:08:06.580Z,18.75
2023-02-11T00:10:34.487Z,19.02
2023-02-11T00:13:02.386Z,18.20
2023-02-11T00:15:30.306Z,20.23
2023-02-11T00:17:58.136Z,19.33
2023-02-11T00:20:27.390Z,19.42
2023-02-11T00:22:55.211Z,19.27
2023-02-11T00:25:23.022Z,18.23
2023-02-11T00:27:50.924Z,17.35
2023-02-11T00:30:18.845Z,19.08
2023-02-11T00:32:46.897Z,18.83
2023-02-11T00:35:14.836Z,19.83
2023-02-11T00:37:44.030Z,18.65
2023-02-11T00:40:12.859Z,17.95
2023-02-11T00:42:40.718Z,17.48
2023-02-11T00:45:10.112Z,18.52
2023-02-11T00:47:38.470Z,18.33
2023-02-11T00:50:08.390Z,18.35
2023-02-11T00:52:36.801Z,19.88
2023-02-11T00:55:06.901Z,18.77
2023-02-11T00:57:35.283Z,19.05
2023-02-11T01:00:03.871Z,19.30
2023-02-11T01:02:32.213Z,18.17
2023-02-11T01:05:00.864Z,19.67
2023-02-11T01:07:29.657Z,18.95
2023-02-11T01:09:58.019Z,18.60
2023-02-11T01:12:27.426Z,19.50
2023-02-11T01:14:55.310Z,18.65
2023-02-11T01:17:23.256Z,19.17
2023-02-11T01:19:51.121Z,19.80
2023-02-11T01:22:19.222Z,18.17
2023-02-11T01:24:48.612Z,18.77
2023-02-11T01:27:16.436Z,19.77
2023-02-11T01:29:47.124Z,19.20
2023-02-11T01:32:14.987Z,18.70
2023-02-11T01:34:42.843Z,19.55
2023-02-11T01:37:10.754Z,19.23
2023-02-11T01:39:38.725Z,18.60
2023-02-11T01:42:07.293Z,20.48
2023-02-11T01:44:39.072Z,20.15
2023-02-11T01:47:08.373Z,20.02
2023-02-11T01:49:39.790Z,19.42
2023-02-11T01:52:13.854Z,19.30
2023-02-11T01:55:02.527Z,19.20
2023-02-11T01:57:33.308Z,18.27
2023-02-11T02:00:09.458Z,18.35
2023-02-11T02:02:53.722Z,18.05
2023-02-11T02:05:30.168Z,18.40
2023-02-11T02:08:06.009Z,18.85
2023-02-11T02:13:03.010Z,17.80
2023-02-11T02:15:33.108Z,19.08
2023-02-11T02:18:16.143Z,19.00
2023-02-11T02:21:14.373Z,19.02
2023-02-11T02:24:35.782Z,18.63
2023-02-11T02:27:42.206Z,17.50
2023-02-11T02:30:41.567Z,19.00
2023-02-11T02:33:44.742Z,19.10
2023-02-11T02:36:21.049Z,19.60
2023-02-11T02:38:55.001Z,19.52
2023-02-11T02:41:26.150Z,19.17
2023-02-11T02:43:54.994Z,19.30
2023-02-11T02:46:25.213Z,19.00
2023-02-11T02:48:54.285Z,18.73
2023-02-11T02:52:01.069Z,18.80
2023-02-11T02:55:13.348Z,19.60
2023-02-11T02:57:58.719Z,19.45
2023-02-11T03:00:33.206Z,19.90
2023-02-11T03:03:16.734Z,18.38
2023-02-11T03:05:54.134Z,19.02
2023-02-11T03:08:29.921Z,19.15
2023-02-11T03:13:33.443Z,17.35
2023-02-11T03:16:05.783Z,18.30
2023-02-11T03:18:37.015Z,18.17
2023-02-11T03:21:08.447Z,18.73
2023-02-11T03:23:40.938Z,18.52
2023-02-11T03:26:15.997Z,10.90
2023-02-11T03:28:47.900Z,17.92
2023-02-11T03:31:20.377Z,16.08
2023-02-11T03:33:56.733Z,15.93
2023-02-11T03:36:29.715Z,17.38
2023-02-11T03:39:01.539Z,16.85
2023-02-11T03:41:31.430Z,16.98
2023-02-11T03:44:00.502Z,15.75
2023-02-11T03:46:33.484Z,17.20
2023-02-11T03:49:06.244Z,17.45
2023-02-11T03:51:34.828Z,17.95
2023-02-11T03:54:07.337Z,17.92
2023-02-11T03:56:42.276Z,17.25
2023-02-11T03:59:10.065Z,17.83
2023-02-11T04:01:37.942Z,17.42
2023-02-11T04:04:06.408Z,18.98
2023-02-11T04:06:34.214Z,18.35
2023-02-11T04:09:02.147Z,17.63
2023-02-11T04:11:31.304Z,18.10
2023-02-11T04:13:59.154Z,18.77
2023-02-11T04:16:28.113Z,17.73
2023-02-11T04:18:55.970Z,18.40
2023-02-11T04:21:24.135Z,19.35
2023-02-11T04:23:51.956Z,18.05
2023-02-11T04:26:19.818Z,19.08
2023-02-11T04:28:49.003Z,18.35
2023-02-11T04:31:16.925Z,19.00
2023-02-11T04:33:44.744Z,19.65
2023-02-11T04:36:12.589Z,21.27
2023-02-11T04:38:40.502Z,20.73
2023-02-11T04:41:08.324Z,22.27
2023-02-11T04:43:36.255Z,19.65
2023-02-11T04:46:05.701Z,20.65
2023-02-11T04:48:34.820Z,20.02
2023-02-11T04:51:02.786Z,21.58
2023-02-11T04:53:30.594Z,21.95
2023-02-11T04:55:59.221Z,21.20
2023-02-11T04:58:27.824Z,21.67
2023-02-11T05:00:56.019Z,21.00
2023-02-11T05:03:25.215Z,21.98
2023-02-11T05:05:53.272Z,21.20
2023-02-11T05:08:21.264Z,20.30
2023-02-11T05:10:49.130Z,21.65
2023-02-11T05:13:16.901Z,20.77
2023-02-11T05:15:45.070Z,20.67
2023-02-11T05:18:14.825Z,21.35
2023-02-11T05:20:45.020Z,20.83
2023-02-11T05:23:13.177Z,20.52
2023-02-11T05:25:41.054Z,20.50
2023-02-11T05:28:08.888Z,20.38
2023-02-11T05:30:36.752Z,20.55
2023-02-11T05:33:07.917Z,22.58
2023-02-11T05:35:36.031Z,21.55
2023-02-11T05:38:05.217Z,19.52
2023-02-11T05:40:33.179Z,23.48
2023-02-11T05:43:01.336Z,34.47
2023-02-11T05:45:29.708Z,24.05
2023-02-11T05:47:58.395Z,24.40
2023-02-11T05:50:26.869Z,25.40
2023-02-11T05:52:54.821Z,21.58
2023-02-11T05:55:24.453Z,19.20
2023-02-11T05:57:53.605Z,19.48
2023-02-11T06:00:21.846Z,20.38
2023-02-11T06:02:50.301Z,19.45
2023-02-11T06:05:18.392Z,21.25
2023-02-11T06:07:46.233Z,19.40
2023-02-11T06:10:14.177Z,18.80
2023-02-11T06:12:44.753Z,19.67
2023-02-11T06:15:13.075Z,18.52
2023-02-11T06:17:40.945Z,18.60
2023-02-11T06:20:10.778Z,18.83
2023-02-11T06:22:38.688Z,17.98
2023-02-11T06:25:07.424Z,17.98
2023-02-11T06:27:35.670Z,18.65
2023-02-11T06:30:06.309Z,19.00
2023-02-11T06:32:43.912Z,18.80
2023-02-11T06:35:13.846Z,17.52
2023-02-11T06:37:42.074Z,19.13
2023-02-11T06:40:10.338Z,16.92
2023-02-11T06:42:39.689Z,17.38
2023-02-11T06:45:11.219Z,18.38
2023-02-11T06:47:40.065Z,18.60
2023-02-11T06:50:10.544Z,18.73
2023-02-11T06:52:38.541Z,16.80
2023-02-11T06:55:07.018Z,19.98
2023-02-11T06:57:34.808Z,18.50
2023-02-11T07:00:02.765Z,18.10
2023-02-11T07:02:32.099Z,21.23
2023-02-11T07:04:59.942Z,20.20
2023-02-11T07:07:28.819Z,17.92
2023-02-11T07:09:56.732Z,17.55
2023-02-11T07:12:24.627Z,16.42
2023-02-11T07:14:52.964Z,17.45
2023-02-11T07:17:20.794Z,16.92
2023-02-11T07:19:50.019Z,16.50
2023-02-11T07:22:17.923Z,17.23
2023-02-11T07:24:46.338Z,18.00
2023-02-11T07:27:14.187Z,17.38
2023-02-11T07:29:43.448Z,16.80
2023-02-11T07:32:11.364Z,17.20
2023-02-11T07:34:39.224Z,17.27
2023-02-11T07:37:08.853Z,16.65
2023-02-11T07:39:36.688Z,16.98
2023-02-11T07:42:05.028Z,16.30
2023-02-11T07:44:33.249Z,17.15
2023-02-11T07:47:01.281Z,16.13
2023-02-11T07:49:29.338Z,17.05
2023-02-11T07:51:57.186Z,17.00
2023-02-11T07:54:26.388Z,17.27
2023-02-11T07:56:54.594Z,17.15
2023-02-11T07:59:22.456Z,17.92
2023-02-11T08:01:51.439Z,17.83
2023-02-11T08:04:19.567Z,17.20
2023-02-11T08:06:47.496Z,16.90
2023-02-11T08:09:17.442Z,16.95
2023-02-11T08:11:46.871Z,17.25
2023-02-11T08:14:14.719Z,16.60
2023-02-11T08:16:42.823Z,16.90
2023-02-11T08:19:13.570Z,17.23
2023-02-11T08:21:42.011Z,16.60
2023-02-11T08:24:10.372Z,16.50
2023-02-11T08:26:38.741Z,16.98
2023-02-11T08:29:11.607Z,17.88
2023-02-11T08:31:42.911Z,17.85
2023-02-11T08:34:11.638Z,16.80
2023-02-11T08:36:40.946Z,17.35
2023-02-11T08:39:19.288Z,17.45
2023-02-11T08:41:49.394Z,16.83
2023-02-11T08:44:18.703Z,16.60
2023-02-11T08:46:46.612Z,17.45
2023-02-11T08:49:15.046Z,16.17
2023-02-11T08:51:43.866Z,17.40
2023-02-11T08:54:12.426Z,17.05
2023-02-11T08:56:40.686Z,17.83
2023-02-11T08:59:10.140Z,16.80
2023-02-11T09:01:39.488Z,18.00
2023-02-11T09:04:07.753Z,18.27
2023-02-11T09:06:35.594Z,17.80
2023-02-11T09:09:03.597Z,17.05
2023-02-11T09:11:33.530Z,16.42
2023-02-11T09:14:02.217Z,16.77
2023-02-11T09:16:31.706Z,17.13
2023-02-11T09:19:02.879Z,17.70
2023-02-11T09:21:31.402Z,18.15
2023-02-11T09:23:59.285Z,16.83
2023-02-11T09:26:28.800Z,18.05
2023-02-11T09:28:57.009Z,17.67
2023-02-11T09:31:27.592Z,17.67
2023-02-11T09:33:58.246Z,18.17
2023-02-11T09:36:29.948Z,16.20
2023-02-11T09:39:00.551Z,16.70
2023-02-11T09:41:50.290Z,17.52
2023-02-11T09:44:21.162Z,17.58
2023-02-11T09:46:54.715Z,17.65
2023-02-11T09:49:28.239Z,17.25
2023-02-11T09:52:02.669Z,17.88
2023-02-11T09:54:35.397Z,18.10
2023-02-11T09:57:03.267Z,17.45
2023-02-11T09:59:31.466Z,15.32
2023-02-11T10:02:03.653Z,17.25
2023-02-11T10:04:51.020Z,17.15
2023-02-11T10:07:27.602Z,16.38
2023-02-11T10:10:08.721Z,17.25
2023-02-11T10:12:49.713Z,16.08
2023-02-11T10:15:26.255Z,17.77
2023-02-11T10:18:05.721Z,16.95
2023-02-11T10:20:37.767Z,18.60
2023-02-11T10:23:16.877Z,19.13
2023-02-11T10:25:47.789Z,17.38
2023-02-11T10:28:18.288Z,17.50
2023-02-11T10:31:00.483Z,17.85
2023-02-11T10:33:34.343Z,18.10
2023-02-11T10:36:02.641Z,17.15
2023-02-11T10:38:32.997Z,24.42
2023-02-11T10:41:00.857Z,18.38
2023-02-11T10:43:31.560Z,17.80
2023-02-11T10:46:01.508Z,17.45
2023-02-11T10:48:44.943Z,17.38
2023-02-11T10:51:20.829Z,17.23
2023-02-11T10:53:51.665Z,16.05
2023-02-11T10:56:27.287Z,16.90
2023-02-11T11:01:38.378Z,15.70
2023-02-11T11:04:07.556Z,15.15
2023-02-11T11:06:36.296Z,15.60
2023-02-11T11:09:05.772Z,16.17
2023-02-11T11:11:33.589Z,16.20
2023-02-11T11:14:03.242Z,17.27
2023-02-11T11:16:39.569Z,18.08
2023-02-11T11:19:24.316Z,15.55
2023-02-11T11:21:54.313Z,32.53
2023-02-11T11:24:29.845Z,18.50
2023-02-11T11:27:07.201Z,20.88
2023-02-11T11:29:40.893Z,18.13
2023-02-11T11:32:19.551Z,19.20
2023-02-11T11:34:52.496Z,17.98
2023-02-11T11:37:35.051Z,16.00
2023-02-11T11:40:23.487Z,17.05
2023-02-11T11:43:10.945Z,16.77
2023-02-11T11:45:41.006Z,15.98
2023-02-11T11:48:22.067Z,16.23
2023-02-11T11:50:59.510Z,15.75
2023-02-11T11:53:37.592Z,15.48
2023-02-11T11:56:18.836Z,16.67
2023-02-11T11:58:46.916Z,16.90
2023-02-11T12:01:28.179Z,16.13
2023-02-11T12:04:15.779Z,16.08
2023-02-11T12:06:56.272Z,15.88
2023-02-11T12:09:33.434Z,15.95
2023-02-11T12:12:26.383Z,16.35
2023-02-11T12:15:04.182Z,16.38
2023-02-11T12:17:49.186Z,17.40
2023-02-11T12:20:32.543Z,16.25
2023-02-11T12:23:21.887Z,17.15
2023-02-11T12:25:58.263Z,17.92
2023-02-11T12:28:41.753Z,19.13
2023-02-11T12:31:24.998Z,16.48
2023-02-11T12:34:06.827Z,16.10
2023-02-11T12:36:54.343Z,15.45
2023-02-11T12:39:33.810Z,15.80
2023-02-11T12:42:43.905Z,16.50
2023-02-11T12:45:27.482Z,16.05
2023-02-11T12:48:09.452Z,17.70
2023-02-11T12:50:50.559Z,19.58
2023-02-11T12:53:37.872Z,18.38
2023-02-11T12:56:21.928Z,16.98
2023-02-11T12:58:58.761Z,17.00
2023-02-11T13:01:35.660Z,17.58
2023-02-11T13:04:13.836Z,16.30
2023-02-11T13:06:50.177Z,17.02
2023-02-11T13:09:23.640Z,17.70
2023-02-11T13:11:56.303Z,16.70
2023-02-11T13:14:28.621Z,16.27
2023-02-11T13:16:58.820Z,17.42
2023-02-11T13:19:33.838Z,16.35
2023-02-11T13:22:11.619Z,18.27
2023-02-11T13:24:45.430Z,18.40
2023-02-11T13:27:25.820Z,18.60
2023-02-11T13:30:23.360Z,20.13
2023-02-11T13:33:08.114Z,20.65
2023-02-11T13:35:37.380Z,20.75
2023-02-11T13:38:09.121Z,18.52
2023-02-11T13:40:39.720Z,19.95
2023-02-11T13:43:22.485Z,20.92
2023-02-11T13:45:52.612Z,20.33
2023-02-11T13:48:26.011Z,20.10
2023-02-11T13:50:56.952Z,19.90
2023-02-11T13:53:25.548Z,20.70
2023-02-11T13:56:06.193Z,19.60
2023-02-11T13:58:40.071Z,19.20
2023-02-11T14:01:11.784Z,19.15
2023-02-11T14:04:37.802Z,19.48
2023-02-11T14:07:46.097Z,18.08
2023-02-11T14:10:52.334Z,19.38
2023-02-11T14:13:25.767Z,19.13
2023-02-11T14:16:10.212Z,19.40
2023-02-11T14:18:41.384Z,18.83
2023-02-11T14:21:17.122Z,21.13
2023-02-11T14:26:40.932Z,18.52
2023-02-11T14:29:18.202Z,18.90
2023-02-11T14:31:56.385Z,17.58
2023-02-11T14:34:48.635Z,19.92
2023-02-11T14:37:31.493Z,18.45
2023-02-11T14:40:06.603Z,18.92
2023-02-11T14:42:38.302Z,19.33
2023-02-11T14:45:10.926Z,19.75
2023-02-11T14:47:44.549Z,22.25
2023-02-11T14:50:27.426Z,20.70
2023-02-11T14:53:00.451Z,19.27
2023-02-11T14:55:33.210Z,19.50
2023-02-11T14:58:16.997Z,20.83
2023-02-11T15:00:50.983Z,19.67
2023-02-11T15:03:39.710Z,19.95
2023-02-11T15:06:18.447Z,20.40
2023-02-11T15:08:54.135Z,19.75
2023-02-11T15:11:27.180Z,19.77
2023-02-11T15:14:09.541Z,19.05
2023-02-11T15:16:55.544Z,20.52
2023-02-11T15:19:47.401Z,18.98
2023-02-11T15:22:25.936Z,20.05
2023-02-11T15:25:24.084Z,18.70
2023-02-11T15:27:59.849Z,19.65
2023-02-11T15:33:03.236Z,18.13
2023-02-11T15:38:44.560Z,19.60
2023-02-11T15:41:39.905Z,19.35
2023-02-11T15:44:35.743Z,19.08
2023-02-11T15:50:27.422Z,24.67
2023-02-11T15:53:22.451Z,19.08
2023-02-11T15:56:11.904Z,19.90
2023-02-11T15:58:51.519Z,19.83
2023-02-11T16:01:21.387Z,19.00
2023-02-11T16:03:54.680Z,22.42
2023-02-11T16:06:53.074Z,21.45
2023-02-11T16:10:07.189Z,20.50
2023-02-11T16:13:06.214Z,19.05
2023-02-11T16:16:05.693Z,19.75
2023-02-11T16:18:45.274Z,21.05
2023-02-11T16:21:39.624Z,20.30
2023-02-11T16:24:22.663Z,20.48
2023-02-11T16:27:14.199Z,21.05
2023-02-11T16:29:51.868Z,20.05
2023-02-11T16:32:32.719Z,21.55
2023-02-11T16:35:27.943Z,22.05
2023-02-11T16:38:11.722Z,21.17
2023-02-11T16:41:02.954Z,22.35
2023-02-11T16:43:37.815Z,22.52
2023-02-11T16:46:26.233Z,22.88
2023-02-11T16:49:10.373Z,22.88
2023-02-11T16:51:42.390Z,33.25
2023-02-11T16:54:26.302Z,23.30
2023-02-11T16:57:19.349Z,21.40
2023-02-11T16:59:51.166Z,22.33
2023-02-11T17:02:29.485Z,21.23
2023-02-11T17:05:53.144Z,21.83
2023-02-11T17:08:39.979Z,19.90
2023-02-11T17:12:24.993Z,20.67
2023-02-11T17:17:22.555Z,20.52
2023-02-11T17:22:35.419Z,21.20
2023-02-11T17:25:21.266Z,21.17
2023-02-11T17:27:57.122Z,21.52
2023-02-11T17:30:35.586Z,22.30
2023-02-11T17:33:08.624Z,21.58
2023-02-11T17:35:42.761Z,22.85
2023-02-11T17:38:13.180Z,22.92
2023-02-11T17:40:41.747Z,21.50
2023-02-11T17:43:26.804Z,22.15
2023-02-11T17:46:28.910Z,22.08
2023-02-11T17:49:03.573Z,22.30
2023-02-11T17:51:49.988Z,22.70
2023-02-11T17:54:37.894Z,22.17
2023-02-11T17:57:14.090Z,22.92
2023-02-11T18:00:13.928Z,22.50
2023-02-11T18:02:52.078Z,22.98
2023-02-11T18:05:32.291Z,23.30
2023-02-11T18:08:31.018Z,22.33
2023-02-11T18:11:08.882Z,20.60
2023-02-11T18:14:15.063Z,22.15
2023-02-11T18:16:51.728Z,20.75
2023-02-11T18:19:24.799Z,23.42
2023-02-11T18:21:54.404Z,33.63
2023-02-11T18:24:24.883Z,25.00
2023-02-11T18:26:56.286Z,24.38
2023-02-11T18:29:25.915Z,23.17
2023-02-11T18:32:00.089Z,24.20
2023-02-11T18:34:29.240Z,22.57
2023-02-11T18:37:01.911Z,22.88
2023-02-11T18:39:30.746Z,23.65
2023-02-11T18:42:16.273Z,23.45
2023-02-11T18:44:47.979Z,24.75
2023-02-11T18:47:17.431Z,23.55
2023-02-11T18:49:47.800Z,23.13
2023-02-11T18:52:18.912Z,24.20
2023-02-11T18:54:47.980Z,22.90
2023-02-11T18:57:17.962Z,23.42
2023-02-11T18:59:48.727Z,22.70
2023-02-11T19:02:17.710Z,22.35
2023-02-11T19:04:48.869Z,22.15
2023-02-11T19:07:25.748Z,22.85
2023-02-11T19:09:57.869Z,22.10
2023-02-11T19:12:29.765Z,21.83
2023-02-11T19:15:00.997Z,23.35
2023-02-11T19:17:30.646Z,23.25
2023-02-11T19:19:59.866Z,22.73
2023-02-11T19:22:30.936Z,24.63
2023-02-11T19:25:03.099Z,28.15
2023-02-11T19:27:38.420Z,25.67
2023-02-11T19:32:41.643Z,23.17
2023-02-11T19:35:11.767Z,24.35
2023-02-11T19:37:40.093Z,22.77
2023-02-11T19:40:09.627Z,25.35
2023-02-11T19:42:46.961Z,26.15
2023-02-11T19:45:16.164Z,25.08
2023-02-11T19:47:44.632Z,27.92
2023-02-11T19:50:13.411Z,28.13
2023-02-11T19:52:41.864Z,27.27
2023-02-11T19:55:10.672Z,26.15
2023-02-11T19:57:39.884Z,25.80
2023-02-11T20:00:11.003Z,26.55
2023-02-11T20:02:42.122Z,25.70
2023-02-11T20:05:11.854Z,28.85
2023-02-11T20:07:42.824Z,31.20
2023-02-11T20:10:13.413Z,30.60
2023-02-11T20:12:52.231Z,27.50
2023-02-11T20:15:23.138Z,24.45
2023-02-11T20:17:52.248Z,23.85
2023-02-11T20:20:22.093Z,23.63
2023-02-11T20:22:52.051Z,23.98
2023-02-11T20:25:21.448Z,24.55
2023-02-11T20:27:54.233Z,26.20
2023-02-11T20:30:23.007Z,26.27
2023-02-11T20:32:54.367Z,26.17
2023-02-11T20:35:23.620Z,24.05
2023-02-11T20:37:53.492Z,24.30
2023-02-11T20:40:24.965Z,25.95
2023-02-11T20:42:58.327Z,25.58
2023-02-11T20:45:27.635Z,26.35
2023-02-11T20:47:57.642Z,27.20
2023-02-11T20:50:27.342Z,30.40
2023-02-11T20:52:59.620Z,39.80
2023-02-11T20:55:28.349Z,70.97
2023-02-11T20:57:59.559Z,31.83
2023-02-11T21:00:28.660Z,32.03
2023-02-11T21:03:00.255Z,37.22
2023-02-11T21:05:32.016Z,33.30
2023-02-11T21:08:01.051Z,34.58
2023-02-11T21:10:31.667Z,34.15
2023-02-11T21:13:06.957Z,32.33
2023-02-11T21:15:36.912Z,30.27
2023-02-11T21:18:08.574Z,31.88
2023-02-11T21:20:38.216Z,32.22
2023-02-11T21:23:17.676Z,32.08
2023-02-11T21:25:47.997Z,29.73
2023-02-11T21:28:18.046Z,27.50
2023-02-11T21:30:47.150Z,29.45
2023-02-11T21:33:16.739Z,28.65
2023-02-11T21:35:45.511Z,29.48
2023-02-11T21:38:14.181Z,27.27
2023-02-11T21:40:44.715Z,26.85
2023-02-11T21:43:16.011Z,27.05
2023-02-11T21:45:52.653Z,26.88
2023-02-11T21:48:23.963Z,26.67
2023-02-11T21:50:53.086Z,26.85
2023-02-11T21:53:21.415Z,27.02
2023-02-11T21:55:51.390Z,26.45
2023-02-11T21:58:25.743Z,25.98
2023-02-11T22:00:56.616Z,25.90
2023-02-11T22:03:27.397Z,26.05
2023-02-11T22:06:01.114Z,27.00
2023-02-11T22:08:33.171Z,27.40
2023-02-11T22:11:07.652Z,26.88
2023-02-11T22:13:38.555Z,24.77
2023-02-11T22:16:11.343Z,25.85
2023-02-11T22:18:46.577Z,26.02
2023-02-11T22:21:17.325Z,25.73
2023-02-11T22:23:50.088Z,25.63
2023-02-11T22:26:27.885Z,26.00
2023-02-11T22:29:00.049Z,27.80
2023-02-11T22:31:32.189Z,28.15
2023-02-11T22:34:08.647Z,28.75
2023-02-11T22:36:46.956Z,28.55
2023-02-11T22:39:17.611Z,30.00
2023-02-11T22:41:47.355Z,28.40
2023-02-11T22:44:20.083Z,28.23
2023-02-11T22:46:51.391Z,27.30
2023-02-11T22:49:23.738Z,28.95
2023-02-11T22:51:52.571Z,27.65
2023-02-11T22:54:21.994Z,28.45
2023-02-11T22:56:52.720Z,28.98
2023-02-11T22:59:21.949Z,29.25
2023-02-11T23:01:57.904Z,28.45
2023-02-11T23:04:26.717Z,27.75
2023-02-11T23:06:57.271Z,26.75
2023-02-11T23:09:25.155Z,27.60
2023-02-11T23:11:54.337Z,27.70
2023-02-11T23:14:22.608Z,28.13
2023-02-11T23:16:51.813Z,27.73
2023-02-11T23:19:21.032Z,29.00
2023-02-11T23:21:52.489Z,30.40
2023-02-11T23:24:20.380Z,31.98
2023-02-11T23:26:48.269Z,30.30
2023-02-11T23:29:16.394Z,29.90
2023-02-11T23:31:46.588Z,29.48
2023-02-11T23:34:17.128Z,28.80
2023-02-11T23:36:46.415Z,28.23
2023-02-11T23:39:15.999Z,27.90
2023-02-11T23:41:44.030Z,29.63
2023-02-11T23:44:11.904Z,27.25
2023-02-11T23:46:40.144Z,28.50
2023-02-11T23:49:08.011Z,29.38
2023-02-11T23:51:35.820Z,28.25
2023-02-11T23:54:05.370Z,28.08
2023-02-11T23:56:33.396Z,27.15
2023-02-11T23:59:01.297Z,27.67
